createdAt,value
2023-05-22T00:03:11.002Z,20.23
2023-05-22T00:08:05.015Z,21.02
2023-05-22T00:12:56.806Z,20.17
2023-05-22T00:17:48.683Z,18.92
2023-05-22T00:22:40.524Z,19.63
2023-05-22T00:27:35.205Z,19.48
2023-05-22T00:32:27.467Z,21.02
2023-05-22T00:37:22.679Z,20.48
2023-05-22T00:42:15.367Z,20.17
2023-05-22T00:47:08.219Z,20.80
2023-05-22T00:52:00.959Z,22.85
2023-05-22T00:56:53.180Z,19.83
2023-05-22T01:01:45.347Z,21.23
2023-05-22T01:06:38.399Z,20.45
2023-05-22T01:11:51.541Z,22.13
2023-05-22T01:17:24.695Z,21.20
2023-05-22T01:22:42.816Z,21.65
2023-05-22T01:27:43.182Z,22.17
2023-05-22T01:32:37.039Z,22.55
2023-05-22T01:37:29.694Z,20.58
2023-05-22T01:42:22.028Z,22.10
2023-05-22T01:47:14.217Z,21.08
2023-05-22T01:52:13.731Z,21.50
2023-05-22T01:57:46.574Z,20.90
2023-05-22T02:02:41.166Z,21.90
2023-05-22T02:07:36.812Z,21.80
2023-05-22T02:12:30.846Z,21.83
2023-05-22T02:17:23.587Z,21.40
2023-05-22T02:22:15.521Z,20.55
2023-05-22T02:27:07.532Z,21.75
2023-05-22T02:31:59.424Z,22.58
2023-05-22T02:36:51.627Z,22.48
2023-05-22T02:41:43.602Z,21.02
2023-05-22T02:46:35.743Z,22.00
2023-05-22T02:51:28.429Z,21.70
2023-05-22T02:56:21.324Z,21.42
2023-05-22T03:01:13.742Z,22.27
2023-05-22T03:06:06.600Z,21.15
2023-05-22T03:10:59.957Z,21.77
2023-05-22T03:15:52.034Z,21.55
2023-05-22T03:20:45.062Z,20.48
2023-05-22T03:25:37.034Z,20.65
2023-05-22T03:30:28.943Z,21.70
2023-05-22T03:35:33.947Z,21.95
2023-05-22T03:40:28.384Z,20.98
2023-05-22T03:45:20.465Z,21.63
2023-05-22T03:50:13.104Z,20.15
2023-05-22T03:55:06.356Z,19.33
2023-05-22T04:00:03.066Z,19.60
2023-05-22T04:05:07.669Z,22.05
2023-05-22T04:09:59.567Z,21.38
2023-05-22T04:14:51.426Z,20.38
2023-05-22T04:19:43.374Z,20.67
2023-05-22T04:24:35.214Z,20.25
2023-05-22T04:29:28.774Z,21.27
2023-05-22T04:34:22.112Z,20.80
2023-05-22T04:39:15.222Z,20.58
2023-05-22T04:44:07.615Z,20.60
2023-05-22T04:49:02.400Z,20.23
2023-05-22T04:53:56.033Z,22.08
2023-05-22T04:58:51.245Z,19.65
2023-05-22T05:03:45.122Z,20.48
2023-05-22T05:08:37.115Z,22.27
2023-05-22T05:13:28.915Z,21.50
2023-05-22T05:18:21.096Z,21.33
2023-05-22T05:23:13.406Z,21.50
2023-05-22T05:28:11.095Z,22.05
2023-05-22T05:33:04.088Z,20.60
2023-05-22T05:38:19.559Z,22.40
2023-05-22T05:43:15.414Z,20.67
2023-05-22T05:48:08.675Z,21.10
2023-05-22T05:53:04.034Z,21.95
2023-05-22T05:57:56.406Z,22.13
2023-05-22T06:03:03.383Z,21.45
2023-05-22T06:08:10.787Z,20.67
2023-05-22T06:13:02.969Z,20.90
2023-05-22T06:17:55.272Z,21.95
2023-05-22T06:22:47.309Z,22.85
2023-05-22T06:27:39.337Z,23.10
2023-05-22T06:32:31.546Z,23.65
2023-05-22T06:37:24.220Z,23.42
2023-05-22T06:42:17.733Z,22.65
2023-05-22T06:47:28.253Z,23.55
2023-05-22T06:52:20.223Z,23.70
2023-05-22T06:57:12.313Z,23.05
2023-05-22T07:02:04.452Z,24.40
2023-05-22T07:07:07.458Z,22.48
2023-05-22T07:11:59.458Z,22.70
2023-05-22T07:16:51.582Z,24.55
2023-05-22T07:21:50.922Z,24.50
2023-05-22T07:26:48.739Z,25.58
2023-05-22T07:31:42.658Z,25.33
2023-05-22T07:36:36.117Z,22.50
2023-05-22T07:41:28.597Z,24.20
2023-05-22T07:46:20.907Z,23.65
2023-05-22T07:51:22.322Z,24.33
2023-05-22T07:56:17.799Z,25.15
2023-05-22T08:01:11.385Z,23.65
2023-05-22T08:06:04.311Z,23.52
2023-05-22T08:11:04.184Z,23.42
2023-05-22T08:16:00.095Z,25.27
2023-05-22T08:20:54.950Z,25.83
2023-05-22T08:25:46.895Z,23.90
2023-05-22T08:30:39.068Z,23.52
2023-05-22T08:35:31.195Z,22.58
2023-05-22T08:40:24.379Z,20.85
2023-05-22T08:45:17.663Z,21.13
2023-05-22T08:50:10.536Z,20.30
2023-05-22T08:55:05.487Z,19.10
2023-05-22T08:59:57.403Z,19.67
2023-05-22T09:04:49.259Z,20.50
2023-05-22T09:09:41.915Z,19.55
2023-05-22T09:14:40.716Z,18.95
2023-05-22T09:19:32.962Z,19.77
2023-05-22T09:24:24.900Z,20.88
2023-05-22T09:29:16.755Z,18.60
2023-05-22T09:34:10.745Z,19.65
2023-05-22T09:39:04.942Z,18.88
2023-05-22T09:43:56.837Z,18.50
2023-05-22T09:48:52.767Z,18.10
2023-05-22T09:53:46.042Z,18.15
2023-05-22T09:58:43.502Z,19.60
2023-05-22T10:03:35.950Z,18.17
2023-05-22T10:08:36.763Z,18.73
2023-05-22T10:13:29.295Z,19.30
2023-05-22T10:18:22.087Z,18.73
2023-05-22T10:23:16.638Z,19.38
2023-05-22T10:28:09.185Z,19.10
2023-05-22T10:33:10.100Z,19.45
2023-05-22T10:38:46.844Z,17.83
2023-05-22T10:43:46.586Z,19.13
2023-05-22T10:48:47.546Z,19.73
2023-05-22T10:53:41.199Z,18.30
2023-05-22T10:58:37.480Z,19.83
2023-05-22T11:03:29.535Z,18.23
2023-05-22T11:08:27.625Z,17.50
2023-05-22T11:13:19.675Z,16.80
2023-05-22T11:18:12.979Z,16.67
2023-05-22T11:23:08.315Z,16.00
2023-05-22T11:28:02.839Z,15.68
2023-05-22T11:32:54.965Z,13.85
2023-05-22T11:37:48.572Z,13.52
2023-05-22T11:42:40.429Z,12.10
2023-05-22T11:47:32.721Z,12.93
2023-05-22T11:52:24.944Z,13.07
2023-05-22T11:57:16.938Z,13.80
2023-05-22T12:02:08.737Z,13.15
2023-05-22T12:07:00.673Z,13.57
2023-05-22T12:11:56.104Z,12.98
2023-05-22T12:16:52.535Z,13.25
2023-05-22T12:21:45.309Z,13.48
2023-05-22T12:26:37.767Z,12.57
2023-05-22T12:31:36.048Z,12.02
2023-05-22T12:36:41.324Z,12.25
2023-05-22T12:41:33.193Z,13.30
2023-05-22T12:46:25.092Z,12.73
2023-05-22T12:51:18.646Z,11.90
2023-05-22T12:56:12.187Z,12.10
2023-05-22T13:01:04.162Z,11.18
2023-05-22T13:05:56.028Z,11.38
2023-05-22T13:10:47.914Z,13.13
2023-05-22T13:15:40.256Z,12.68
2023-05-22T13:20:32.284Z,13.13
2023-05-22T13:25:24.580Z,11.77
2023-05-22T13:30:16.711Z,12.35
2023-05-22T13:35:09.044Z,12.25
2023-05-22T13:40:01.283Z,10.85
2023-05-22T13:44:53.172Z,13.13
2023-05-22T13:49:45.802Z,11.80
2023-05-22T13:54:37.665Z,11.77
2023-05-22T13:59:30.077Z,11.65
2023-05-22T14:04:21.915Z,11.55
2023-05-22T14:09:13.956Z,11.88
2023-05-22T14:14:06.018Z,11.75
2023-05-22T14:19:00.838Z,11.88
2023-05-22T14:23:52.782Z,12.45
2023-05-22T14:28:44.782Z,12.27
2023-05-22T14:33:36.729Z,12.57
2023-05-22T14:38:33.905Z,12.07
2023-05-22T14:43:25.871Z,13.55
2023-05-22T14:48:17.959Z,12.15
2023-05-22T14:53:09.848Z,10.82
2023-05-22T14:58:01.647Z,12.13
2023-05-22T15:02:53.540Z,12.23
2023-05-22T15:07:47.260Z,11.63
2023-05-22T15:12:40.331Z,12.52
2023-05-22T15:17:32.285Z,12.95
2023-05-22T15:22:24.113Z,13.00
2023-05-22T15:27:17.503Z,13.43
2023-05-22T15:32:09.776Z,11.80
2023-05-22T15:37:01.643Z,12.15
2023-05-22T15:42:05.326Z,11.55
2023-05-22T15:46:59.106Z,12.52
2023-05-22T15:51:50.968Z,12.38
2023-05-22T15:56:42.845Z,12.77
2023-05-22T16:01:35.503Z,12.32
2023-05-22T16:06:36.766Z,13.05
2023-05-22T16:11:28.752Z,13.20
2023-05-22T16:16:20.871Z,12.95
2023-05-22T16:21:12.691Z,12.98
2023-05-22T16:26:04.777Z,12.85
2023-05-22T16:30:56.628Z,12.50
2023-05-22T16:35:48.553Z,11.75
2023-05-22T16:40:40.461Z,13.52
2023-05-22T16:45:32.304Z,11.50
2023-05-22T16:50:24.211Z,10.82
2023-05-22T16:55:16.149Z,10.88
2023-05-22T17:00:11.131Z,12.20
2023-05-22T17:05:04.454Z,12.07
2023-05-22T17:09:56.722Z,11.98
2023-05-22T17:14:48.533Z,12.23
2023-05-22T17:19:40.394Z,12.63
2023-05-22T17:24:32.281Z,12.38
2023-05-22T17:29:25.100Z,11.65
2023-05-22T17:34:18.554Z,12.68
2023-05-22T17:39:10.381Z,11.93
2023-05-22T17:44:02.274Z,12.85
2023-05-22T17:48:55.423Z,12.38
2023-05-22T17:53:47.539Z,12.27
2023-05-22T17:58:39.557Z,12.20
2023-05-22T18:03:31.633Z,13.73
2023-05-22T18:08:23.663Z,13.05
2023-05-22T18:13:15.866Z,12.38
2023-05-22T18:18:08.000Z,13.05
2023-05-22T18:23:00.516Z,13.65
2023-05-22T18:27:52.413Z,13.90
2023-05-22T18:32:44.300Z,13.65
2023-05-22T18:37:36.975Z,15.27
2023-05-22T18:42:28.791Z,14.60
2023-05-22T18:47:20.751Z,14.95
2023-05-22T18:52:12.640Z,13.20
2023-05-22T18:57:04.686Z,13.90
2023-05-22T19:01:56.584Z,13.38
2023-05-22T19:06:48.593Z,12.68
2023-05-22T19:11:40.548Z,13.85
2023-05-22T19:16:32.437Z,14.77
2023-05-22T19:21:24.789Z,15.60
2023-05-22T19:26:16.749Z,15.05
2023-05-22T19:31:08.739Z,15.27
2023-05-22T19:36:02.340Z,16.13
2023-05-22T19:40:54.758Z,18.15
2023-05-22T19:45:46.942Z,20.38
2023-05-22T19:50:39.570Z,19.17
2023-05-22T19:55:32.039Z,17.70
2023-05-22T20:00:28.586Z,19.15
2023-05-22T20:05:20.451Z,17.30
2023-05-22T20:10:12.409Z,18.58
2023-05-22T20:15:06.612Z,18.35
2023-05-22T20:20:01.022Z,18.00
2023-05-22T20:24:53.336Z,17.98
2023-05-22T20:29:45.265Z,17.48
2023-05-22T20:34:38.680Z,16.38
2023-05-22T20:39:30.713Z,15.88
2023-05-22T20:44:24.845Z,16.70
2023-05-22T20:49:20.717Z,15.82
2023-05-22T20:54:12.633Z,15.63
2023-05-22T20:59:04.776Z,17.05
2023-05-22T21:03:56.890Z,17.92
2023-05-22T21:08:48.860Z,17.77
2023-05-22T21:13:40.908Z,17.23
2023-05-22T21:18:32.854Z,18.05
2023-05-22T21:23:24.803Z,16.27
2023-05-22T21:28:16.708Z,16.52
2023-05-22T21:33:08.653Z,15.55
2023-05-22T21:38:00.533Z,16.42
2023-05-22T21:42:52.561Z,14.95
2023-05-22T21:47:44.548Z,16.90
2023-05-22T21:52:36.472Z,17.58
2023-05-22T21:57:28.928Z,15.07
2023-05-22T22:02:21.044Z,16.90
2023-05-22T22:07:13.694Z,15.88
2023-05-22T22:12:05.934Z,17.13
2023-05-22T22:16:58.346Z,16.58
2023-05-22T22:21:50.756Z,15.80
2023-05-22T22:26:44.522Z,16.92
2023-05-22T22:31:36.491Z,16.02
2023-05-22T22:36:28.365Z,16.33
2023-05-22T22:41:20.142Z,15.60
2023-05-22T22:46:12.289Z,15.85
2023-05-22T22:51:05.092Z,17.38
2023-05-22T22:55:57.089Z,16.17
2023-05-22T23:00:49.121Z,15.30
2023-05-22T23:05:41.156Z,15.75
2023-05-22T23:10:33.273Z,16.25
2023-05-22T23:15:25.114Z,16.55
2023-05-22T23:20:17.118Z,16.58
2023-05-22T23:25:09.709Z,16.80
2023-05-22T23:30:01.516Z,16.83
2023-05-22T23:34:53.590Z,15.85
2023-05-22T23:39:45.413Z,15.90
2023-05-22T23:44:37.447Z,14.75
2023-05-22T23:49:29.342Z,15.20
2023-05-22T23:54:21.182Z,15.82
2023-05-22T23:59:13.043Z,15.23
